createdAt,value
2024-04-05T00:00:32.953Z,1.00
2024-04-05T00:01:35.138Z,1.50
2024-04-05T00:02:40.964Z,1.30
2024-04-05T00:03:33.873Z,1.00
2024-04-05T00:07:57.281Z,1.00
2024-04-05T00:10:16.315Z,1.00
2024-04-05T00:11:16.350Z,1.00
2024-04-05T00:12:17.203Z,1.10
2024-04-05T00:13:17.254Z,1.20
2024-04-05T00:14:16.481Z,1.00
2024-04-05T00:15:16.363Z,1.30
2024-04-05T00:16:16.335Z,1.10
2024-04-05T00:17:17.378Z,1.20
2024-04-05T00:18:23.843Z,1.30
2024-04-05T00:19:16.283Z,1.00
2024-04-05T00:20:16.249Z,1.40
2024-04-05T00:21:17.211Z,1.20
2024-04-05T00:22:16.324Z,1.50
2024-04-05T00:23:24.193Z,1.30
2024-04-05T00:24:16.295Z,1.30
2024-04-05T00:25:20.027Z,1.50
2024-04-05T00:26:17.979Z,1.70
2024-04-05T00:27:19.153Z,1.40
2024-04-05T00:28:18.173Z,1.10
2024-04-05T00:29:20.916Z,1.10
2024-04-05T00:30:24.939Z,1.00
2024-04-05T00:31:16.208Z,1.40
2024-04-05T00:32:17.876Z,1.10
2024-04-05T00:33:21.065Z,1.20
2024-04-05T00:34:16.152Z,1.10
2024-04-05T00:35:16.150Z,1.10
2024-04-05T00:36:24.365Z,1.10
2024-04-05T00:37:16.161Z,1.10
2024-04-05T00:38:16.054Z,1.10
2024-04-05T00:39:16.056Z,1.10
2024-04-05T00:40:16.121Z,1.20
2024-04-05T00:41:16.088Z,1.30
2024-04-05T00:42:16.047Z,1.20
2024-04-05T00:43:15.985Z,1.20
2024-04-05T00:44:16.046Z,1.10
2024-04-05T00:45:16.003Z,1.10
2024-04-05T00:46:15.989Z,1.40
2024-04-05T00:47:15.973Z,1.00
2024-04-05T00:48:15.947Z,1.40
2024-04-05T00:49:15.990Z,1.30
2024-04-05T00:50:15.925Z,1.50
2024-04-05T00:51:15.944Z,1.40
2024-04-05T00:52:15.897Z,1.40
2024-04-05T00:53:15.903Z,1.40
2024-04-05T00:54:15.899Z,1.90
2024-04-05T00:55:16.835Z,1.10
2024-04-05T00:56:15.876Z,1.30
2024-04-05T00:57:15.996Z,1.30
2024-04-05T00:58:15.848Z,1.50
2024-04-05T00:59:16.391Z,1.60
2024-04-05T01:00:15.818Z,1.40
2024-04-05T01:01:15.836Z,1.90
2024-04-05T01:02:15.785Z,1.70
2024-04-05T01:03:15.766Z,1.50
2024-04-05T01:04:16.094Z,1.60
2024-04-05T01:05:16.178Z,1.50
2024-04-05T01:06:16.023Z,1.30
2024-04-05T01:07:16.007Z,1.50
2024-04-05T01:08:15.963Z,1.60
2024-04-05T01:09:15.698Z,1.50
2024-04-05T01:10:15.838Z,1.80
2024-04-05T01:11:15.688Z,1.40
2024-04-05T01:12:15.669Z,1.50
2024-04-05T01:13:15.660Z,1.40
2024-04-05T01:14:15.659Z,1.50
2024-04-05T01:15:15.651Z,1.40
2024-04-05T01:16:15.643Z,1.20
2024-04-05T01:17:15.608Z,1.60
2024-04-05T01:18:15.655Z,1.50
2024-04-05T01:19:15.607Z,1.50
2024-04-05T01:20:15.590Z,1.70
2024-04-05T01:21:15.584Z,1.40
2024-04-05T01:22:15.598Z,1.40
2024-04-05T01:23:15.545Z,1.40
2024-04-05T01:24:15.553Z,1.60
2024-04-05T01:25:15.521Z,1.20
2024-04-05T01:26:15.524Z,1.50
2024-04-05T01:27:15.541Z,1.10
2024-04-05T01:28:15.500Z,1.30
2024-04-05T01:29:15.524Z,1.70
2024-04-05T01:30:15.478Z,1.30
2024-04-05T01:31:15.471Z,1.40
2024-04-05T01:32:15.464Z,1.20
2024-04-05T01:33:15.447Z,1.10
2024-04-05T01:34:15.477Z,1.20
2024-04-05T01:35:15.413Z,1.50
2024-04-05T01:36:15.435Z,1.50
2024-04-05T01:37:15.392Z,1.40
2024-04-05T01:38:15.380Z,1.30
2024-04-05T01:39:15.395Z,1.30
2024-04-05T01:40:15.405Z,1.30
2024-04-05T01:41:15.339Z,1.40
2024-04-05T01:42:15.333Z,1.40
2024-04-05T01:43:15.352Z,1.40
2024-04-05T01:44:15.362Z,1.20
2024-04-05T01:45:15.298Z,1.40
2024-04-05T01:46:15.292Z,1.10
2024-04-05T01:47:15.281Z,1.20
2024-04-05T01:48:15.293Z,1.10
2024-04-05T01:49:15.340Z,1.00
2024-04-05T01:50:15.255Z,1.20
2024-04-05T01:51:15.276Z,1.40
2024-04-05T01:52:15.253Z,1.30
2024-04-05T01:53:15.262Z,1.30
2024-04-05T01:54:15.300Z,1.20
2024-04-05T01:55:15.214Z,1.40
2024-04-05T01:56:15.188Z,1.40
2024-04-05T01:57:15.920Z,1.40
2024-04-05T01:58:15.178Z,1.40
2024-04-05T01:59:15.142Z,0.90
2024-04-05T02:00:15.178Z,1.50
2024-04-05T02:01:15.143Z,1.40
2024-04-05T02:02:15.134Z,1.10
2024-04-05T02:03:15.136Z,1.40
2024-04-05T02:04:15.085Z,1.30
2024-04-05T02:05:15.077Z,1.40
2024-04-05T02:06:15.082Z,1.30
2024-04-05T02:07:15.068Z,1.40
2024-04-05T02:08:15.056Z,1.50
2024-04-05T02:09:15.031Z,1.30
2024-04-05T02:10:15.081Z,1.40
2024-04-05T02:11:15.010Z,1.30
2024-04-05T02:12:15.018Z,1.50
2024-04-05T02:13:14.984Z,1.20
2024-04-05T02:14:14.984Z,1.60
2024-04-05T02:15:14.984Z,1.60
2024-04-05T02:16:14.968Z,1.20
2024-04-05T02:17:14.954Z,1.10
2024-04-05T02:18:14.992Z,1.20
2024-04-05T02:19:14.920Z,1.20
2024-04-05T02:20:14.912Z,1.30
2024-04-05T02:21:14.910Z,1.20
2024-04-05T02:22:14.917Z,1.30
2024-04-05T02:23:14.890Z,1.30
2024-04-05T02:24:14.931Z,1.10
2024-04-05T02:25:14.860Z,1.40
2024-04-05T02:26:14.897Z,1.10
2024-04-05T02:27:14.832Z,1.20
2024-04-05T02:28:14.864Z,1.20
2024-04-05T02:29:14.810Z,1.60
2024-04-05T02:30:14.814Z,1.40
2024-04-05T02:31:14.838Z,1.20
2024-04-05T02:32:14.785Z,1.40
2024-04-05T02:33:14.760Z,1.30
2024-04-05T02:34:14.761Z,1.20
2024-04-05T02:35:14.799Z,1.40
2024-04-05T02:36:14.766Z,1.50
2024-04-05T02:37:14.717Z,1.30
2024-04-05T02:38:14.724Z,1.10
2024-04-05T02:39:14.716Z,1.40
2024-04-05T02:40:14.735Z,1.20
2024-04-05T02:41:14.707Z,1.30
2024-04-05T02:42:14.696Z,1.00
2024-04-05T02:43:14.657Z,1.30
2024-04-05T02:44:14.680Z,1.20
2024-04-05T02:45:14.846Z,1.40
2024-04-05T02:46:14.655Z,1.10
2024-04-05T02:47:14.613Z,1.20
2024-04-05T02:48:14.626Z,1.30
2024-04-05T02:49:14.587Z,1.40
2024-04-05T02:50:14.592Z,1.00
2024-04-05T02:51:14.616Z,1.30
2024-04-05T02:52:14.554Z,1.20
2024-04-05T02:53:14.546Z,1.20
2024-04-05T02:54:17.108Z,1.50
2024-04-05T02:55:14.572Z,1.30
2024-04-05T02:56:14.788Z,1.40
2024-04-05T02:57:15.232Z,1.40
2024-04-05T02:58:14.760Z,1.10
2024-04-05T02:59:14.810Z,1.10
2024-04-05T03:00:14.726Z,1.60
2024-04-05T03:01:14.574Z,1.30
2024-04-05T03:02:14.486Z,1.40
2024-04-05T03:03:14.427Z,1.10
2024-04-05T03:04:14.425Z,1.40
2024-04-05T03:05:14.437Z,1.40
2024-04-05T03:06:14.416Z,1.40
2024-04-05T03:07:14.386Z,1.50
2024-04-05T03:08:14.407Z,1.20
2024-04-05T03:09:14.451Z,1.40
2024-04-05T03:10:14.373Z,1.30
2024-04-05T03:11:14.378Z,1.10
2024-04-05T03:12:14.339Z,1.10
2024-04-05T03:13:14.318Z,1.30
2024-04-05T03:14:14.344Z,1.10
2024-04-05T03:15:14.339Z,1.20
2024-04-05T03:16:14.346Z,1.00
2024-04-05T03:17:14.300Z,1.10
2024-04-05T03:18:14.267Z,1.10
2024-04-05T03:19:14.270Z,1.20
2024-04-05T03:20:14.268Z,1.10
2024-04-05T03:21:14.228Z,1.30
2024-04-05T03:22:14.223Z,1.00
2024-04-05T03:23:14.223Z,1.60
2024-04-05T03:24:14.216Z,1.00
2024-04-05T03:25:14.218Z,1.20
2024-04-05T03:26:14.206Z,1.20
2024-04-05T03:27:14.199Z,1.20
2024-04-05T03:28:14.151Z,1.30
2024-04-05T03:29:14.280Z,1.00
2024-04-05T03:30:14.134Z,1.20
2024-04-05T03:31:14.150Z,1.20
2024-04-05T03:32:14.166Z,1.20
2024-04-05T03:33:14.111Z,1.10
2024-04-05T03:34:14.097Z,1.30
2024-04-05T03:35:15.087Z,1.10
2024-04-05T03:36:14.089Z,1.10
2024-04-05T03:37:14.064Z,1.10
2024-04-05T03:38:14.059Z,1.30
2024-04-05T03:39:14.155Z,1.10
2024-04-05T03:40:14.022Z,1.40
2024-04-05T03:41:14.006Z,1.50
2024-04-05T03:42:13.999Z,1.10
2024-04-05T03:43:13.996Z,1.00
2024-04-05T03:44:14.004Z,1.40
2024-04-05T03:45:13.970Z,1.10
2024-04-05T03:46:14.009Z,1.10
2024-04-05T03:47:13.935Z,1.30
2024-04-05T03:48:13.977Z,1.40
2024-04-05T03:49:13.928Z,1.70
2024-04-05T03:50:13.977Z,1.20
2024-04-05T03:51:13.938Z,1.20
2024-04-05T03:52:13.914Z,1.10
2024-04-05T03:53:13.932Z,1.80
2024-04-05T03:54:13.867Z,1.60
2024-04-05T03:55:13.909Z,1.30
2024-04-05T03:56:13.851Z,1.30
2024-04-05T03:57:13.862Z,1.50
2024-04-05T03:58:13.890Z,1.50
2024-04-05T03:59:13.816Z,1.00
2024-04-05T04:00:13.822Z,1.20
2024-04-05T04:01:21.852Z,1.40
2024-04-05T04:02:13.834Z,1.40
2024-04-05T04:03:21.888Z,1.30
2024-04-05T04:04:13.754Z,1.40
2024-04-05T04:05:13.748Z,1.20
2024-04-05T04:06:13.728Z,1.40
2024-04-05T04:07:13.756Z,1.60
2024-04-05T04:08:13.738Z,1.10
2024-04-05T04:09:13.708Z,1.20
2024-04-05T04:10:13.700Z,1.30
2024-04-05T04:11:13.673Z,1.20
2024-04-05T04:12:13.668Z,1.50
2024-04-05T04:13:13.688Z,1.50
2024-04-05T04:14:13.645Z,1.80
2024-04-05T04:15:13.656Z,1.90
2024-04-05T04:16:17.071Z,1.70
2024-04-05T04:17:13.621Z,1.30
2024-04-05T04:18:13.627Z,1.70
2024-04-05T04:19:13.603Z,1.60
2024-04-05T04:20:13.581Z,1.50
2024-04-05T04:21:13.570Z,1.60
2024-04-05T04:22:13.580Z,1.70
2024-04-05T04:23:13.563Z,1.70
2024-04-05T04:24:13.550Z,1.40
2024-04-05T04:25:13.580Z,1.10
2024-04-05T04:26:13.508Z,1.50
2024-04-05T04:27:13.519Z,1.20
2024-04-05T04:28:13.503Z,1.50
2024-04-05T04:29:13.479Z,1.70
2024-04-05T04:30:13.658Z,1.30
2024-04-05T04:31:13.471Z,0.90
2024-04-05T04:32:13.882Z,1.30
2024-04-05T04:33:13.440Z,1.20
2024-04-05T04:34:13.465Z,1.30
2024-04-05T04:35:13.456Z,1.70
2024-04-05T04:36:13.417Z,1.30
2024-04-05T04:37:13.439Z,1.40
2024-04-05T04:38:13.372Z,1.10
2024-04-05T04:39:14.026Z,1.30
2024-04-05T04:40:13.354Z,1.20
2024-04-05T04:41:13.351Z,1.40
2024-04-05T04:42:13.342Z,1.20
2024-04-05T04:43:13.361Z,1.30
2024-04-05T04:44:13.320Z,1.00
2024-04-05T04:45:13.323Z,1.20
2024-04-05T04:46:13.316Z,1.00
2024-04-05T04:47:13.292Z,1.40
2024-04-05T04:48:13.265Z,1.20
2024-04-05T04:49:13.259Z,1.10
2024-04-05T04:50:13.267Z,1.20
2024-04-05T04:51:13.297Z,1.60
2024-04-05T04:52:13.236Z,1.30
2024-04-05T04:53:13.231Z,1.30
2024-04-05T04:54:13.199Z,1.30
2024-04-05T04:55:13.216Z,1.30
2024-04-05T04:56:13.201Z,1.20
2024-04-05T04:57:13.178Z,1.00
2024-04-05T04:58:13.161Z,1.10
2024-04-05T04:59:13.162Z,1.20
2024-04-05T05:00:13.130Z,1.30
2024-04-05T05:01:13.137Z,0.90
2024-04-05T05:02:13.108Z,1.10
2024-04-05T05:03:13.129Z,1.10
2024-04-05T05:04:13.090Z,1.30
2024-04-05T05:05:13.119Z,1.30
2024-04-05T05:06:13.153Z,1.30
2024-04-05T05:07:13.059Z,1.30
2024-04-05T05:08:13.052Z,1.10
2024-04-05T05:09:13.032Z,1.30
2024-04-05T05:10:13.054Z,1.00
2024-04-05T05:11:13.026Z,1.20
2024-04-05T05:12:13.015Z,1.20
2024-04-05T05:13:12.992Z,1.20
2024-04-05T05:14:12.974Z,1.40
2024-04-05T05:15:13.012Z,1.10
2024-04-05T05:16:12.977Z,0.90
2024-04-05T05:17:12.954Z,1.30
2024-04-05T05:18:12.970Z,1.20
2024-04-05T05:19:12.971Z,1.00
2024-04-05T05:20:13.025Z,1.20
2024-04-05T05:21:12.922Z,1.00
2024-04-05T05:22:12.901Z,1.00
2024-04-05T05:23:12.881Z,1.20
2024-04-05T05:24:12.976Z,1.70
2024-04-05T05:25:12.889Z,1.40
2024-04-05T05:26:12.918Z,1.50
2024-04-05T05:27:12.826Z,1.40
2024-04-05T05:28:12.819Z,1.10
2024-04-05T05:29:12.888Z,1.20
2024-04-05T05:30:12.898Z,1.40
2024-04-05T05:31:12.804Z,1.10
2024-04-05T05:32:12.805Z,1.30
2024-04-05T05:33:12.794Z,0.90
2024-04-05T05:34:12.766Z,1.10
2024-04-05T05:35:12.781Z,1.10
2024-04-05T05:36:12.746Z,1.00
2024-04-05T05:37:12.722Z,1.10
2024-04-05T05:38:12.901Z,1.00
2024-04-05T05:39:12.798Z,1.10
2024-04-05T05:40:12.723Z,1.30
2024-04-05T05:41:12.686Z,1.30
2024-04-05T05:42:12.695Z,1.30
2024-04-05T05:43:12.734Z,1.10
2024-04-05T05:44:12.667Z,1.30
2024-04-05T05:45:12.639Z,1.30
2024-04-05T05:46:12.669Z,1.00
2024-04-05T05:47:13.032Z,1.30
2024-04-05T05:48:12.588Z,1.00
2024-04-05T05:49:12.647Z,1.10
2024-04-05T05:50:12.597Z,1.30
2024-04-05T05:51:12.575Z,1.20
2024-04-05T05:52:12.598Z,1.10
2024-04-05T05:53:12.565Z,1.10
2024-04-05T05:54:12.540Z,1.40
2024-04-05T05:55:12.538Z,1.00
2024-04-05T05:56:13.259Z,1.50
2024-04-05T05:57:12.507Z,1.00
2024-04-05T05:58:13.103Z,1.00
2024-04-05T05:59:13.494Z,1.40
2024-04-05T06:00:12.461Z,1.20
2024-04-05T06:01:12.456Z,1.30
2024-04-05T06:02:12.464Z,1.10
2024-04-05T06:03:12.454Z,1.40
2024-04-05T06:04:12.412Z,1.30
2024-04-05T06:05:12.408Z,1.10
2024-04-05T06:06:12.483Z,1.00
2024-04-05T06:07:12.392Z,1.00
2024-04-05T06:08:12.394Z,1.10
2024-04-05T06:09:12.371Z,1.50
2024-04-05T06:10:12.337Z,0.90
2024-04-05T06:11:12.899Z,1.10
2024-04-05T06:12:12.421Z,1.20
2024-04-05T06:13:12.572Z,1.30
2024-04-05T06:14:12.382Z,1.10
2024-04-05T06:15:12.333Z,1.00
2024-04-05T06:16:12.327Z,1.10
2024-04-05T06:17:12.311Z,0.80
2024-04-05T06:18:12.300Z,1.20
2024-04-05T06:19:12.261Z,1.10
2024-04-05T06:20:12.290Z,1.10
2024-04-05T06:21:12.263Z,0.90
2024-04-05T06:22:12.239Z,1.10
2024-04-05T06:23:12.210Z,1.00
2024-04-05T06:24:12.200Z,0.90
2024-04-05T06:25:12.195Z,1.40
2024-04-05T06:26:12.185Z,1.70
2024-04-05T06:27:12.185Z,1.30
2024-04-05T06:28:12.153Z,1.30
2024-04-05T06:29:12.162Z,1.40
2024-04-05T06:30:12.136Z,1.40
2024-04-05T06:31:12.166Z,1.80
2024-04-05T06:32:12.158Z,1.20
2024-04-05T06:33:12.090Z,1.20
2024-04-05T06:34:12.086Z,1.30
2024-04-05T06:35:12.083Z,1.20
2024-04-05T06:36:12.071Z,1.90
2024-04-05T06:37:12.054Z,1.00
2024-04-05T06:38:12.046Z,1.10
2024-04-05T06:39:12.029Z,1.50
2024-04-05T06:40:12.036Z,1.10
2024-04-05T06:41:12.762Z,1.10
2024-04-05T06:42:12.005Z,1.30
2024-04-05T06:43:12.823Z,1.10
2024-04-05T06:44:13.379Z,0.90
2024-04-05T06:45:14.011Z,1.30
2024-04-05T06:46:11.988Z,1.00
2024-04-05T06:47:16.731Z,1.20
2024-04-05T06:48:11.957Z,1.10
2024-04-05T06:49:13.987Z,1.30
2024-04-05T06:50:15.149Z,0.90
2024-04-05T06:51:15.518Z,0.90
2024-04-05T06:52:13.219Z,0.80
2024-04-05T06:53:17.280Z,1.10
2024-04-05T06:54:13.827Z,1.00
2024-04-05T06:55:18.027Z,1.20
2024-04-05T06:56:12.524Z,1.20
2024-04-05T06:57:13.798Z,1.10
2024-04-05T06:58:17.319Z,1.00
2024-04-05T06:59:17.669Z,1.30
2024-04-05T07:00:14.718Z,1.30
2024-04-05T07:02:00.671Z,1.00
2024-04-05T07:02:12.980Z,1.20
2024-04-05T07:03:21.178Z,1.00
2024-04-05T07:05:41.279Z,1.20
2024-04-05T07:06:42.191Z,1.00
2024-04-05T07:07:45.383Z,1.30
2024-04-05T07:10:05.308Z,1.40
2024-04-05T07:11:05.814Z,1.10
2024-04-05T07:12:05.805Z,1.20
2024-04-05T07:13:07.742Z,1.20
2024-04-05T07:14:05.740Z,1.10
2024-04-05T07:15:22.125Z,1.40
2024-04-05T07:16:06.687Z,1.10
2024-04-05T07:17:09.788Z,1.30
2024-04-05T07:18:05.748Z,1.10
2024-04-05T07:19:09.539Z,1.60
2024-04-05T07:20:05.638Z,1.40
2024-04-05T07:21:05.634Z,1.20
2024-04-05T07:22:05.640Z,1.00
2024-04-05T07:23:08.334Z,1.40
2024-04-05T07:24:07.485Z,1.20
2024-04-05T07:25:05.598Z,1.40
2024-04-05T07:26:05.584Z,1.50
2024-04-05T07:27:05.582Z,1.50
2024-04-05T07:28:05.589Z,1.30
2024-04-05T07:29:10.308Z,1.30
2024-04-05T07:30:05.554Z,1.60
2024-04-05T07:31:12.942Z,1.20
2024-04-05T07:32:07.680Z,1.40
2024-04-05T07:33:06.796Z,1.40
2024-04-05T07:34:05.650Z,1.30
2024-04-05T07:35:05.693Z,1.10
2024-04-05T07:36:05.474Z,1.50
2024-04-05T07:37:05.463Z,1.10
2024-04-05T07:38:05.562Z,0.90
2024-04-05T07:39:05.428Z,1.20
2024-04-05T07:40:05.434Z,1.60
2024-04-05T07:41:05.422Z,1.20
2024-04-05T07:42:05.419Z,1.30
2024-04-05T07:43:05.409Z,1.50
2024-04-05T07:44:05.383Z,2.00
2024-04-05T07:45:09.068Z,1.40
2024-04-05T07:46:07.566Z,1.50
2024-04-05T07:47:05.409Z,1.30
2024-04-05T07:48:07.176Z,1.20
2024-04-05T07:49:45.856Z,1.20
2024-04-05T07:51:23.879Z,1.30
2024-04-05T07:52:23.914Z,1.30
2024-04-05T07:53:23.901Z,1.60
2024-04-05T07:54:23.907Z,1.20
2024-04-05T07:55:23.888Z,1.10
2024-04-05T07:56:24.000Z,1.70
2024-04-05T07:57:25.510Z,1.40
2024-04-05T07:58:26.613Z,1.40
2024-04-05T07:59:26.294Z,1.10
2024-04-05T08:00:25.018Z,1.00
2024-04-05T08:01:23.855Z,1.00
2024-04-05T08:02:26.548Z,1.20
2024-04-05T08:03:25.549Z,1.60
2024-04-05T08:04:26.571Z,1.20
2024-04-05T08:05:23.782Z,1.30
2024-04-05T08:06:23.780Z,1.10
2024-04-05T08:07:23.730Z,1.40
2024-04-05T08:08:24.976Z,1.10
2024-04-05T08:09:26.242Z,1.30
2024-04-05T08:10:24.357Z,1.20
2024-04-05T08:11:23.685Z,1.10
2024-04-05T08:12:23.726Z,1.10
2024-04-05T08:13:23.667Z,1.00
2024-04-05T08:14:26.387Z,1.00
2024-04-05T08:15:26.930Z,1.30
2024-04-05T08:16:25.929Z,1.10
2024-04-05T08:17:23.782Z,0.90
2024-04-05T08:18:25.021Z,1.00
2024-04-05T08:19:25.609Z,1.20
2024-04-05T08:20:30.636Z,1.00
2024-04-05T08:21:23.625Z,1.00
2024-04-05T08:22:27.288Z,0.90
2024-04-05T08:23:26.302Z,1.10
2024-04-05T08:24:25.322Z,1.10
2024-04-05T08:25:59.428Z,1.00
2024-04-05T08:26:25.543Z,1.10
2024-04-05T08:27:23.595Z,0.80
2024-04-05T08:28:26.434Z,0.90
2024-04-05T08:29:33.478Z,0.90
2024-04-05T08:30:24.537Z,0.90
2024-04-05T08:31:25.231Z,0.90
2024-04-05T08:32:29.607Z,1.80
2024-04-05T08:33:30.005Z,1.40
2024-04-05T08:34:23.473Z,2.20
2024-04-05T08:35:23.498Z,1.70
2024-04-05T08:36:23.449Z,1.30
2024-04-05T08:37:23.417Z,1.10
2024-04-05T08:38:23.524Z,1.10
2024-04-05T08:39:23.375Z,1.00
2024-04-05T08:40:23.393Z,0.80
2024-04-05T08:41:23.750Z,1.00
2024-04-05T08:42:23.361Z,1.00
2024-04-05T08:43:23.379Z,1.10
2024-04-05T08:44:23.357Z,1.10
2024-04-05T08:45:23.418Z,0.90
2024-04-05T08:46:23.371Z,0.80
2024-04-05T08:47:24.048Z,1.00
2024-04-05T08:48:23.309Z,0.90
2024-04-05T08:49:23.294Z,1.00
2024-04-05T08:50:23.359Z,0.70
2024-04-05T08:51:23.478Z,0.90
2024-04-05T08:52:23.265Z,0.90
2024-04-05T08:53:23.251Z,1.10
2024-04-05T08:54:23.266Z,1.00
2024-04-05T08:55:23.267Z,0.60
2024-04-05T08:56:24.977Z,0.90
2024-04-05T08:57:23.202Z,0.90
2024-04-05T08:58:23.169Z,0.70
2024-04-05T08:59:23.160Z,0.70
2024-04-05T09:00:23.156Z,0.90
2024-04-05T09:01:23.171Z,0.90
2024-04-05T09:02:23.172Z,0.90
2024-04-05T09:03:23.155Z,0.70
2024-04-05T09:04:23.134Z,0.70
2024-04-05T09:05:24.047Z,0.80
2024-04-05T09:06:23.119Z,0.80
2024-04-05T09:07:23.122Z,1.10
2024-04-05T09:08:23.095Z,1.60
2024-04-05T09:09:23.103Z,1.80
2024-04-05T09:10:23.116Z,1.10
2024-04-05T09:11:24.818Z,1.40
2024-04-05T09:12:23.041Z,1.60
2024-04-05T09:13:23.021Z,1.00
2024-04-05T09:14:25.659Z,0.90
2024-04-05T09:15:22.995Z,0.70
2024-04-05T09:16:23.064Z,0.60
2024-04-05T09:17:22.969Z,0.90
2024-04-05T09:18:22.950Z,1.10
2024-04-05T09:19:24.308Z,1.10
2024-04-05T09:20:24.663Z,0.80
2024-04-05T09:21:22.960Z,0.60
2024-04-05T09:22:22.950Z,0.80
2024-04-05T09:23:25.576Z,0.80
2024-04-05T09:24:22.914Z,0.80
2024-04-05T09:25:22.908Z,0.60
2024-04-05T09:26:22.952Z,0.60
2024-04-05T09:27:22.864Z,0.90
2024-04-05T09:28:24.639Z,0.80
2024-04-05T09:29:22.876Z,0.80
2024-04-05T09:30:22.903Z,0.80
2024-04-05T09:31:22.864Z,1.00
2024-04-05T09:32:22.895Z,0.70
2024-04-05T09:33:24.653Z,0.60
2024-04-05T09:34:22.877Z,0.80
2024-04-05T09:35:25.405Z,1.00
2024-04-05T09:36:23.743Z,0.90
2024-04-05T09:37:22.884Z,1.10
2024-04-05T09:38:22.811Z,0.80
2024-04-05T09:39:22.738Z,0.90
2024-04-05T09:40:22.854Z,0.60
2024-04-05T09:41:23.408Z,0.80
2024-04-05T09:42:22.734Z,0.80
2024-04-05T09:43:22.685Z,0.80
2024-04-05T09:44:26.307Z,1.10
2024-04-05T09:45:26.507Z,1.60
2024-04-05T09:46:24.606Z,1.00
2024-04-05T09:47:22.677Z,0.90
2024-04-05T09:48:22.626Z,1.00
2024-04-05T09:49:30.921Z,0.70
2024-04-05T09:50:22.586Z,0.60
2024-04-05T09:51:22.576Z,0.70
2024-04-05T09:52:22.778Z,0.80
2024-04-05T09:53:22.606Z,0.80
2024-04-05T09:54:22.716Z,0.70
2024-04-05T09:55:22.556Z,0.70
2024-04-05T09:56:22.526Z,0.80
2024-04-05T09:57:24.173Z,0.70
2024-04-05T09:58:22.539Z,0.60
2024-04-05T09:59:22.561Z,0.50
2024-04-05T10:00:22.470Z,0.70
2024-04-05T10:01:22.503Z,0.60
2024-04-05T10:02:24.478Z,1.00
2024-04-05T10:03:23.000Z,0.60
2024-04-05T10:04:22.448Z,0.60
2024-04-05T10:05:22.417Z,0.90
2024-04-05T10:06:22.427Z,1.00
2024-04-05T10:07:22.399Z,0.70
2024-04-05T10:08:22.468Z,0.80
2024-04-05T10:09:22.426Z,0.60
2024-04-05T10:10:22.362Z,1.00
2024-04-05T10:11:22.372Z,0.80
2024-04-05T10:12:22.550Z,0.70
2024-04-05T10:13:22.362Z,1.10
2024-04-05T10:14:22.311Z,1.00
2024-04-05T10:15:22.313Z,1.10
2024-04-05T10:16:22.290Z,0.70
2024-04-05T10:17:22.278Z,0.80
2024-04-05T10:18:22.304Z,1.00
2024-04-05T10:19:22.266Z,1.00
2024-04-05T10:20:22.256Z,0.90
2024-04-05T10:21:22.271Z,0.60
2024-04-05T10:22:22.312Z,1.10
2024-04-05T10:23:22.280Z,0.70
2024-04-05T10:24:22.936Z,0.70
2024-04-05T10:25:22.216Z,0.60
2024-04-05T10:26:22.210Z,0.50
2024-04-05T10:27:22.218Z,0.60
2024-04-05T10:28:22.166Z,0.70
2024-04-05T10:29:22.201Z,0.80
2024-04-05T10:30:22.138Z,0.70
2024-04-05T10:31:22.124Z,0.80
2024-04-05T10:32:22.121Z,0.80
2024-04-05T10:33:23.881Z,0.60
2024-04-05T10:34:22.178Z,0.60
2024-04-05T10:35:22.081Z,0.70
2024-04-05T10:36:22.097Z,0.60
2024-04-05T10:37:25.889Z,0.50
2024-04-05T10:38:29.015Z,0.80
2024-04-05T10:39:22.054Z,0.60
2024-04-05T10:40:22.020Z,0.70
2024-04-05T10:41:22.059Z,0.90
2024-04-05T10:42:22.106Z,0.70
2024-04-05T10:43:22.006Z,0.90
2024-04-05T10:44:22.003Z,0.50
2024-04-05T10:45:22.033Z,0.70
2024-04-05T10:46:22.541Z,0.80
2024-04-05T10:47:21.963Z,0.80
2024-04-05T10:48:22.794Z,0.70
2024-04-05T10:49:21.928Z,0.70
2024-04-05T10:50:22.002Z,0.70
2024-04-05T10:51:24.148Z,1.00
2024-04-05T10:52:23.741Z,0.70
2024-04-05T10:53:22.935Z,0.80
2024-04-05T10:54:22.054Z,0.80
2024-04-05T10:55:21.872Z,0.80
2024-04-05T10:56:21.882Z,0.50
2024-04-05T10:57:21.855Z,0.80
2024-04-05T10:58:21.827Z,0.90
2024-04-05T10:59:22.799Z,0.60
2024-04-05T11:00:21.821Z,0.70
2024-04-05T11:01:27.014Z,0.50
2024-04-05T11:02:21.781Z,0.70
2024-04-05T11:03:21.776Z,0.60
2024-04-05T11:04:21.771Z,0.70
2024-04-05T11:05:21.891Z,0.90
2024-04-05T11:06:21.812Z,0.90
2024-04-05T11:07:21.811Z,0.60
2024-04-05T11:08:21.717Z,0.50
2024-04-05T11:09:21.751Z,0.90
2024-04-05T11:10:27.354Z,0.70
2024-04-05T11:11:21.972Z,0.80
2024-04-05T11:12:21.780Z,0.50
2024-04-05T11:13:21.662Z,0.70
2024-04-05T11:14:21.651Z,0.80
2024-04-05T11:15:21.649Z,0.40
2024-04-05T11:16:21.679Z,0.50
2024-04-05T11:17:21.614Z,0.40
2024-04-05T11:18:21.605Z,0.50
2024-04-05T11:19:21.600Z,0.50
2024-04-05T11:20:21.608Z,0.60
2024-04-05T11:21:21.603Z,0.50
2024-04-05T11:22:22.560Z,0.60
2024-04-05T11:23:21.628Z,0.70
2024-04-05T11:24:21.542Z,0.50
2024-04-05T11:25:21.711Z,0.50
2024-04-05T11:26:21.567Z,0.40
2024-04-05T11:27:21.592Z,0.50
2024-04-05T11:28:21.585Z,0.40
2024-04-05T11:29:21.510Z,0.50
2024-04-05T11:30:21.545Z,0.60
2024-04-05T11:31:21.467Z,0.60
2024-04-05T11:32:21.459Z,0.60
2024-04-05T11:33:21.500Z,0.60
2024-04-05T11:34:21.425Z,0.60
2024-04-05T11:35:21.483Z,0.60
2024-04-05T11:36:21.425Z,0.80
2024-04-05T11:37:21.481Z,0.80
2024-04-05T11:38:21.513Z,0.60
2024-04-05T11:39:21.378Z,0.70
2024-04-05T11:40:32.807Z,1.20
2024-04-05T11:41:25.948Z,0.80
2024-04-05T11:42:23.373Z,0.50
2024-04-05T11:43:24.782Z,0.50
2024-04-05T11:44:21.321Z,0.50
2024-04-05T11:45:21.341Z,1.10
2024-04-05T11:46:23.314Z,0.90
2024-04-05T11:47:22.695Z,0.50
2024-04-05T11:48:21.298Z,1.10
2024-04-05T11:49:21.299Z,0.70
2024-04-05T11:50:21.296Z,0.70
2024-04-05T11:51:21.241Z,0.70
2024-04-05T11:52:21.236Z,0.70
2024-04-05T11:53:21.226Z,1.00
2024-04-05T11:54:21.216Z,0.50
2024-04-05T11:55:21.217Z,0.70
2024-04-05T11:56:21.219Z,0.80
2024-04-05T11:57:24.257Z,0.60
2024-04-05T11:58:21.160Z,0.70
2024-04-05T11:59:21.187Z,1.20
2024-04-05T12:00:21.172Z,1.30
2024-04-05T12:01:21.158Z,0.90
2024-04-05T12:02:21.192Z,0.70
2024-04-05T12:03:21.128Z,0.80
2024-04-05T12:04:21.107Z,0.80
2024-04-05T12:05:21.101Z,0.60
2024-04-05T12:06:22.063Z,0.50
2024-04-05T12:07:21.252Z,0.50
2024-04-05T12:08:21.169Z,0.40
2024-04-05T12:09:21.151Z,0.40
2024-04-05T12:10:21.088Z,0.30
2024-04-05T12:11:21.038Z,0.40
2024-04-05T12:12:21.027Z,0.60
2024-04-05T12:13:21.057Z,0.40
2024-04-05T12:14:20.976Z,0.60
2024-04-05T12:15:20.976Z,0.70
2024-04-05T12:16:21.026Z,0.50
2024-04-05T12:17:20.969Z,0.50
2024-04-05T12:18:20.965Z,0.50
2024-04-05T12:19:20.936Z,0.40
2024-04-05T12:20:20.992Z,0.70
2024-04-05T12:21:41.892Z,0.60
2024-04-05T12:22:20.899Z,0.70
2024-04-05T12:23:20.938Z,1.00
2024-04-05T12:24:20.877Z,0.40
2024-04-05T12:25:20.913Z,0.50
2024-04-05T12:26:23.511Z,0.60
2024-04-05T12:27:21.817Z,0.90
2024-04-05T12:28:20.859Z,0.60
2024-04-05T12:29:20.813Z,1.00
2024-04-05T12:30:20.807Z,0.60
2024-04-05T12:31:20.825Z,0.60
2024-04-05T12:32:20.842Z,0.70
2024-04-05T12:33:20.791Z,0.50
2024-04-05T12:34:20.811Z,0.70
2024-04-05T12:35:21.755Z,0.50
2024-04-05T12:36:20.752Z,0.70
2024-04-05T12:37:20.754Z,0.60
2024-04-05T12:38:34.836Z,0.60
2024-04-05T12:39:21.721Z,0.60
2024-04-05T12:40:20.698Z,0.60
2024-04-05T12:41:20.828Z,0.50
2024-04-05T12:42:20.696Z,0.40
2024-04-05T12:43:20.666Z,0.40
2024-04-05T12:44:21.096Z,0.60
2024-04-05T12:45:20.632Z,0.60
2024-04-05T12:46:20.704Z,0.50
2024-04-05T12:47:20.606Z,0.50
2024-04-05T12:48:20.631Z,0.60
2024-04-05T12:49:20.655Z,0.60
2024-04-05T12:50:20.980Z,0.70
2024-04-05T12:51:20.616Z,0.60
2024-04-05T12:52:20.554Z,0.60
2024-04-05T12:53:20.546Z,0.80
2024-04-05T12:54:20.537Z,0.70
2024-04-05T12:55:20.764Z,0.60
2024-04-05T12:56:20.606Z,0.60
2024-04-05T12:57:20.506Z,0.60
2024-04-05T12:58:20.514Z,0.50
2024-04-05T12:59:20.474Z,0.50
2024-04-05T13:00:20.490Z,0.70
2024-04-05T13:01:20.466Z,0.40
2024-04-05T13:02:21.198Z,0.50
2024-04-05T13:03:20.449Z,0.50
2024-04-05T13:04:20.433Z,0.70
2024-04-05T13:05:20.461Z,0.60
2024-04-05T13:06:20.445Z,0.60
2024-04-05T13:07:20.432Z,0.50
2024-04-05T13:08:21.112Z,0.60
2024-04-05T13:09:20.388Z,0.40
2024-04-05T13:10:20.368Z,0.60
2024-04-05T13:11:20.373Z,0.40
2024-04-05T13:12:20.329Z,0.50
2024-04-05T13:13:20.347Z,0.60
2024-04-05T13:14:20.335Z,0.60
2024-04-05T13:15:20.311Z,0.40
2024-04-05T13:16:20.293Z,0.50
2024-04-05T13:17:20.289Z,0.50
2024-04-05T13:18:20.317Z,0.60
2024-04-05T13:19:20.279Z,0.50
2024-04-05T13:20:20.263Z,0.40
2024-04-05T13:21:20.279Z,0.60
2024-04-05T13:22:20.227Z,0.40
2024-04-05T13:23:20.321Z,0.60
2024-04-05T13:24:20.216Z,0.70
2024-04-05T13:25:20.236Z,0.40
2024-04-05T13:26:21.677Z,0.50
2024-04-05T13:27:20.184Z,0.40